Detall de PIREP

Printer-friendly versionPDF version

[2015/02/28 10:10:00]
Flight IATA:CT1004
Pilot Number:012
Company ICAO:CAT
Aircraft Type:C750/F
PAX:4
Departing Airport: EGPF
Destination Airport: LEBL
Alternate Airport:LEPA
Online: VATSIM
Route:TLA L602 NATEB UP16 CROFT UL612 HON UN859 ETRAT UQ203 PUMAL
Flight Level:F490
No Slew and time accel
No pause
Crash detect
Detect pilot in Cockpit between each 30 and 45 minutes
10:10 Zero fuel Weight: 22640 Lbs, Fuel Weight: 8011 Lbs
10:10 VATSIM:EGPF 280950Z AUTO 22013KT 9999 SCT015 BKN037 08/05 Q0998
10:10 VATSIM:LEBL 280930Z 34010KT CAVOK 09/M01 Q1022 NOSIG
10:10 MWC 2015 BARCELONA CHARTER
10:21 Parking Brakes off
10:25 Take-off
10:25 Take off Weight: 30489 Lbs
10:25 Wind: 223º @ 013 Knots Heading: 225º
10:25 POS N55º 52´ 09´´ W004º 26´ 16´´
10:25 Gear Up: 162 Knots
10:25 Flaps:3 at 162 Knots
10:25 Flaps:2 at 174 Knots
10:25 Flaps:0 at 184 Knots
10:40 Wind:279º@084 Knots Heading: 123º Ground Speed: 529 Knots Altitude 28654 ft
10:46 TOC
10:46 Fuel Weight: 7088 Lb
10:55 Wind:288º@031 Knots Heading: 167º Ground Speed: 498 Knots Altitude 48743 ft
11:10 Wind:302º@025 Knots Heading: 167º Ground Speed: 497 Knots Altitude 48894 ft
11:25 Wind:314º@021 Knots Heading: 171º Ground Speed: 499 Knots Altitude 49041 ft
11:40 Wind:338º@021 Knots Heading: 170º Ground Speed: 502 Knots Altitude 49169 ft
11:55 Wind:345º@022 Knots Heading: 170º Ground Speed: 504 Knots Altitude 49219 ft
12:06 TOD
12:06 Fuel Weight: 5887 Lb
12:10 Wind:346º@038 Knots Heading: 170º Ground Speed: 515 Knots Altitude 41748 ft
12:25 Wind:320º@018 Knots Heading: 204º Ground Speed: 220 Knots Altitude 6512 ft
12:28 Flaps:2 at 189 Knots
12:32 Gear Down: 189 Knots
12:32 Flaps:3 at 179 Knots
12:32 Flaps:4 at 168 Knots
12:32 Flaps:5 at 159 Knots
12:34 TouchDown:Rate -197 ft/min Speed: 130 Knots
12:34 VATSIM:LEBL 281200Z 19009KT CAVOK 12/M00 Q1021 NOSIG
12:34 Land
12:34 Wind:226º@007 Knots
12:34 Heading: 244º
12:34 Flight Duration: 02:09
12:34 Landing Weight: 28283 Lbs
12:34 POS N41º 18´ 00´´ E002º 05´ 14´´
12:38 Parking brakes on
12:38 Block to Block Duration: 02:17
12:38 Final Fuel: 5608 Lbls
12:38 Spent Fuel: 2403 Lbls
12:38 Flight Length: 971 NM
12:38 TOD Land Length: 164 NM

Exportar CSV

Powered by Drupal - Modified by Danger4k